Time;durP1;ratioP1;P1;durP2;ratioP2;P2;SDS_P1;SDS_P2;PMS_P1;PMS_P2;Temp;Humidity;BMP_temperature;BMP_pressure;BME280_temperature;BME280_humidity;BME280_pressure;Samples;Min_cycle;Max_cycle;Signal;HPM_P1;HPM_P2
2021/12/23 00:01:13;;;;;;;13.00;12.50;;;17.90;50.30;;;;;;5014018;28;20473;-45
2021/12/23 00:03:41;;;;;;;14.07;13.47;;;18.00;50.00;;;;;;5013676;28;20489;-44
2021/12/23 00:06:08;;;;;;;14.47;13.87;;;17.90;49.90;;;;;;5012898;28;20446;-45
2021/12/23 00:08:35;;;;;;;14.60;14.00;;;17.90;50.00;;;;;;5013625;28;20458;-44
2021/12/23 00:11:03;;;;;;;13.30;12.90;;;17.90;49.90;;;;;;5013759;28;20449;-45
2021/12/23 00:13:33;;;;;;;14.43;13.83;;;17.90;49.80;;;;;;5013515;28;20485;-48
2021/12/23 00:16:06;;;;;;;14.40;13.60;;;17.90;49.80;;;;;;5013961;28;20451;-45
2021/12/23 00:24:09;;;;;;;14.10;13.60;;;17.80;49.80;;;;;;5013606;28;20441;-44
2021/12/23 00:26:36;;;;;;;14.20;13.67;;;17.80;49.90;;;;;;5013190;28;20453;-47
2021/12/23 00:29:03;;;;;;;13.90;13.40;;;17.70;49.70;;;;;;5013646;28;20438;-44
2021/12/23 00:31:30;;;;;;;13.93;13.43;;;17.80;49.80;;;;;;5013213;28;20452;-48
2021/12/23 00:33:57;;;;;;;14.00;13.50;;;17.80;49.70;;;;;;5013170;28;20472;-45
2021/12/23 00:36:26;;;;;;;13.90;13.40;;;17.80;49.70;;;;;;5013217;28;20477;-48
2021/12/23 00:38:55;;;;;;;14.13;13.63;;;17.80;49.60;;;;;;5013230;28;20450;-44
2021/12/23 00:41:28;;;;;;;13.77;13.20;;;17.70;49.60;;;;;;5013155;28;20456;-47
2021/12/23 00:43:55;;;;;;;14.00;13.40;;;17.70;49.60;;;;;;5012769;28;20492;-44
2021/12/23 00:46:22;;;;;;;14.00;13.47;;;17.70;49.70;;;;;;5013217;28;20452;-46
2021/12/23 00:48:49;;;;;;;15.40;14.70;;;17.60;49.70;;;;;;5013112;28;20789;-44
2021/12/23 00:51:16;;;;;;;15.07;14.37;;;17.70;49.80;;;;;;5013008;28;20461;-46
2021/12/23 00:53:48;;;;;;;14.70;13.90;;;17.70;49.80;;;;;;5012274;28;20953;-44
2021/12/23 00:56:15;;;;;;;15.83;15.13;;;17.60;49.80;;;;;;5013066;28;20469;-46
2021/12/23 00:58:42;;;;;;;15.90;15.20;;;17.50;49.70;;;;;;5012835;28;20819;-47
2021/12/23 01:01:09;;;;;;;15.90;15.27;;;17.50;49.80;;;;;;5012955;28;20525;-43
2021/12/23 01:03:37;;;;;;;15.70;15.00;;;17.50;49.80;;;;;;5012239;28;20512;-43
2021/12/23 01:06:04;;;;;;;15.03;14.33;;;17.60;49.70;;;;;;5012780;28;20442;-44
2021/12/23 01:08:31;;;;;;;16.30;15.40;;;17.50;49.80;;;;;;5012750;28;20850;-49
2021/12/23 01:11:00;;;;;;;16.57;15.77;;;17.50;49.80;;;;;;5012642;28;20461;-44
2021/12/23 01:13:29;;;;;;;15.43;14.73;;;17.60;49.80;;;;;;5012289;28;20500;-47
2021/12/23 01:16:06;;;;;;;16.03;15.17;;;17.50;49.70;;;;;;5012209;28;20454;-48
2021/12/23 01:18:38;;;;;;;15.47;14.77;;;17.50;49.80;;;;;;5012420;28;20445;-44
2021/12/23 01:21:15;;;;;;;16.70;15.80;;;17.40;49.80;;;;;;5012592;28;20815;-45
2021/12/23 01:23:44;;;;;;;16.03;15.23;;;17.40;49.90;;;;;;5011823;28;20466;-49
2021/12/23 01:26:17;;;;;;;17.00;16.10;;;17.40;49.90;;;;;;5012458;28;20446;-45
2021/12/23 01:28:45;;;;;;;16.07;15.37;;;17.40;49.90;;;;;;5012549;28;20450;-46
2021/12/23 01:31:12;;;;;;;17.60;16.50;;;17.40;50.00;;;;;;5012459;28;20882;-45
2021/12/23 01:33:39;;;;;;;17.60;16.70;;;17.30;50.00;;;;;;5011774;28;20493;-45
2021/12/23 01:36:07;;;;;;;16.70;15.87;;;17.30;50.00;;;;;;4992581;28;20941;-44
2021/12/23 01:38:34;;;;;;;17.37;16.47;;;17.30;50.10;;;;;;4992484;28;20501;-48
2021/12/23 01:41:01;;;;;;;16.13;15.33;;;17.30;50.20;;;;;;4992680;28;20459;-45
2021/12/23 01:43:30;;;;;;;17.30;16.37;;;17.30;50.20;;;;;;4992283;28;20463;-45
2021/12/23 01:45:57;;;;;;;16.90;16.10;;;17.30;50.20;;;;;;5011312;28;20442;-44
2021/12/23 01:48:25;;;;;;;17.43;16.43;;;17.20;50.10;;;;;;5012090;28;20453;-45
2021/12/23 01:50:52;;;;;;;17.33;16.40;;;17.20;50.20;;;;;;5012023;28;20450;-44
2021/12/23 01:53:19;;;;;;;17.40;16.50;;;17.20;50.20;;;;;;5011386;28;20588;-45
2021/12/23 01:55:47;;;;;;;17.00;16.20;;;17.20;50.20;;;;;;5011937;28;20809;-44
2021/12/23 01:58:15;;;;;;;18.10;17.10;;;17.20;50.20;;;;;;5011946;28;20454;-44
2021/12/23 02:00:45;;;;;;;16.53;15.70;;;17.10;50.10;;;;;;5011842;28;20449;-44
2021/12/23 02:03:13;;;;;;;19.17;18.07;;;17.10;50.30;;;;;;5041708;22;20528;-49
2021/12/23 02:05:40;;;;;;;17.30;16.40;;;17.10;50.50;;;;;;5043392;28;20432;-48
2021/12/23 02:08:07;;;;;;;18.90;17.80;;;17.00;50.50;;;;;;5051549;28;20444;-50
2021/12/23 02:10:35;;;;;;;17.37;16.57;;;17.00;50.50;;;;;;5051640;28;20440;-49
2021/12/23 02:13:02;;;;;;;18.83;17.70;;;17.10;50.50;;;;;;5042532;28;20481;-49
2021/12/23 02:15:30;;;;;;;16.90;15.90;;;17.10;50.30;;;;;;5031761;28;20871;-51
2021/12/23 02:17:58;;;;;;;18.40;17.10;;;17.00;50.30;;;;;;5031653;28;20452;-51
2021/12/23 02:20:30;;;;;;;17.70;16.70;;;16.90;50.50;;;;;;5031585;28;20448;-49
2021/12/23 02:22:57;;;;;;;18.57;17.57;;;17.00;50.60;;;;;;5030937;28;20469;-52
2021/12/23 02:25:24;;;;;;;19.07;17.70;;;16.90;50.60;;;;;;5031441;28;20445;-53
2021/12/23 02:27:53;;;;;;;17.83;16.73;;;16.90;50.70;;;;;;5031438;28;20460;-53
2021/12/23 02:30:27;;;;;;;17.93;17.03;;;16.90;50.70;;;;;;5035003;28;20539;-52
2021/12/23 02:32:55;;;;;;;18.47;17.47;;;16.90;50.80;;;;;;5035014;28;20507;-49
2021/12/23 02:35:24;;;;;;;17.40;16.50;;;16.90;50.70;;;;;;5035488;28;20452;-51
2021/12/23 02:37:53;;;;;;;18.40;17.30;;;16.90;50.80;;;;;;5035482;28;20453;-49
2021/12/23 02:40:29;;;;;;;18.07;17.07;;;16.90;50.90;;;;;;5035500;28;20931;-50
2021/12/23 02:42:58;;;;;;;18.13;17.13;;;16.90;50.80;;;;;;5034895;28;20483;-49
2021/12/23 02:45:25;;;;;;;18.00;17.03;;;16.90;50.80;;;;;;5035352;28;20444;-49
2021/12/23 02:47:52;;;;;;;18.20;17.20;;;16.90;50.80;;;;;;5034922;28;20966;-50
2021/12/23 02:50:19;;;;;;;19.30;18.30;;;16.90;50.80;;;;;;5035482;28;20445;-54
2021/12/23 02:52:47;;;;;;;17.60;16.77;;;17.00;50.70;;;;;;5034491;28;20611;-50
2021/12/23 02:55:19;;;;;;;17.63;16.80;;;16.90;50.50;;;;;;5035103;28;20445;-51
2021/12/23 02:57:46;;;;;;;18.77;17.73;;;16.90;50.50;;;;;;5035099;28;20455;-49
2021/12/23 03:00:14;;;;;;;18.97;17.80;;;16.80;50.50;;;;;;5035081;28;20455;-53
2021/12/23 03:02:42;;;;;;;17.80;16.80;;;16.80;50.60;;;;;;5034483;28;20447;-49
2021/12/23 03:05:10;;;;;;;17.37;16.47;;;16.80;50.70;;;;;;5035025;28;20972;-54
2021/12/23 03:07:37;;;;;;;18.77;17.77;;;16.80;50.70;;;;;;5034989;28;20532;-53
2021/12/23 03:10:08;;;;;;;19.27;18.17;;;16.70;50.70;;;;;;5034879;28;20453;-49
2021/12/23 03:12:37;;;;;;;19.73;18.43;;;16.70;50.80;;;;;;5034178;28;20993;-50
2021/12/23 03:15:05;;;;;;;18.30;17.30;;;16.80;50.80;;;;;;5034866;28;21001;-49
2021/12/23 03:17:33;;;;;;;18.67;17.57;;;16.80;50.80;;;;;;5034754;28;20455;-49
2021/12/23 03:20:00;;;;;;;18.67;17.57;;;16.80;51.30;;;;;;5034700;28;20452;-51
2021/12/23 03:22:27;;;;;;;18.10;17.03;;;16.70;50.70;;;;;;5034066;28;20451;-51
2021/12/23 03:24:54;;;;;;;18.43;17.43;;;16.70;50.70;;;;;;5034646;28;20881;-50
2021/12/23 03:27:21;;;;;;;18.07;17.17;;;16.80;50.80;;;;;;5034485;28;20476;-51
2021/12/23 03:29:50;;;;;;;17.83;16.93;;;16.70;50.70;;;;;;5034439;28;20452;-49
2021/12/23 03:32:17;;;;;;;17.13;16.23;;;16.70;50.60;;;;;;5033958;28;20449;-51
2021/12/23 03:34:44;;;;;;;19.27;18.17;;;16.70;50.80;;;;;;5033943;28;20464;-49
2021/12/23 03:37:11;;;;;;;18.70;17.80;;;16.70;50.80;;;;;;5034469;28;20445;-49
2021/12/23 03:39:39;;;;;;;17.53;16.53;;;16.70;50.70;;;;;;5034179;28;20459;-50
2021/12/23 03:42:07;;;;;;;17.90;16.93;;;16.70;50.70;;;;;;5034221;28;20449;-49
2021/12/23 03:44:34;;;;;;;17.50;16.50;;;16.70;50.70;;;;;;5033937;28;20819;-49
2021/12/23 03:47:02;;;;;;;17.37;16.03;;;16.70;50.70;;;;;;5034218;28;20456;-49
2021/12/23 03:49:29;;;;;;;18.60;17.57;;;16.70;50.70;;;;;;5034217;28;20811;-49
2021/12/23 03:51:56;;;;;;;18.47;17.37;;;16.60;50.70;;;;;;5033916;28;20445;-53
2021/12/23 03:54:24;;;;;;;17.43;16.53;;;16.60;50.80;;;;;;5033704;28;20484;-49
2021/12/23 03:56:51;;;;;;;18.30;17.30;;;16.60;50.90;;;;;;5033875;28;20477;-49
2021/12/23 03:59:18;;;;;;;16.80;16.00;;;16.60;50.90;;;;;;5033935;28;20445;-50
2021/12/23 04:01:45;;;;;;;17.60;16.67;;;16.60;50.90;;;;;;5033787;28;20953;-49
2021/12/23 04:04:14;;;;;;;18.20;17.10;;;16.60;50.80;;;;;;5033433;28;20483;-52
2021/12/23 04:06:41;;;;;;;19.10;18.00;;;16.50;50.90;;;;;;5033847;28;20445;-52
2021/12/23 04:09:08;;;;;;;17.90;17.00;;;16.60;51.00;;;;;;5033737;28;20989;-49
2021/12/23 04:11:35;;;;;;;16.40;15.70;;;16.60;50.90;;;;;;5033600;28;20453;-51
2021/12/23 04:14:02;;;;;;;17.37;16.47;;;16.50;50.90;;;;;;5033277;28;20485;-49
2021/12/23 04:16:29;;;;;;;17.43;16.53;;;16.60;51.00;;;;;;5033721;28;20498;-51
2021/12/23 04:18:57;;;;;;;17.20;16.30;;;16.60;50.90;;;;;;5033562;28;20451;-50
2021/12/23 04:21:25;;;;;;;17.77;16.63;;;16.50;51.00;;;;;;5033670;28;20946;-49
2021/12/23 04:23:53;;;;;;;16.40;15.57;;;16.50;51.00;;;;;;5032955;28;20468;-51
2021/12/23 04:26:20;;;;;;;16.53;15.60;;;16.40;51.20;;;;;;5033493;28;20441;-49
2021/12/23 04:28:47;;;;;;;17.50;16.60;;;16.40;51.40;;;;;;5033469;28;20450;-49
2021/12/23 04:31:17;;;;;;;16.80;15.90;;;16.40;51.30;;;;;;5033349;28;21079;-52
2021/12/23 04:33:45;;;;;;;17.40;16.40;;;16.40;51.30;;;;;;5032832;28;20844;-50
2021/12/23 04:36:12;;;;;;;16.53;15.53;;;16.20;51.40;;;;;;5033293;28;20464;-49
2021/12/23 04:38:42;;;;;;;17.17;16.17;;;16.10;51.70;;;;;;5033261;28;20795;-49
2021/12/23 04:41:10;;;;;;;16.50;15.50;;;16.10;52.10;;;;;;5033432;28;20441;-50
2021/12/23 04:43:38;;;;;;;17.00;16.03;;;16.00;52.40;;;;;;5032568;28;20549;-49
2021/12/23 04:46:05;;;;;;;17.60;16.30;;;16.00;52.70;;;;;;5032881;28;20458;-52
2021/12/23 04:48:33;;;;;;;16.70;15.80;;;16.10;52.70;;;;;;5032854;28;20452;-51
2021/12/23 04:51:01;;;;;;;16.83;15.87;;;16.10;52.60;;;;;;5032524;28;20935;-49
2021/12/23 04:53:28;;;;;;;16.87;15.77;;;16.10;52.60;;;;;;5032028;28;20910;-52
2021/12/23 04:55:57;;;;;;;17.00;15.90;;;16.20;52.50;;;;;;5032775;28;20449;-50
2021/12/23 04:58:25;;;;;;;17.40;16.50;;;16.20;52.30;;;;;;5032796;28;20445;-49
2021/12/23 05:00:52;;;;;;;16.30;15.27;;;16.10;52.30;;;;;;5032951;28;20621;-50
2021/12/23 05:03:21;;;;;;;17.47;16.33;;;16.20;52.30;;;;;;5032109;28;20918;-56
2021/12/23 05:05:49;;;;;;;17.80;16.80;;;16.20;52.10;;;;;;5032632;28;20452;-53
2021/12/23 05:08:17;;;;;;;17.27;16.27;;;16.20;52.20;;;;;;5032668;28;20445;-50
2021/12/23 05:10:45;;;;;;;16.97;16.00;;;16.30;52.00;;;;;;5032691;28;20451;-51
2021/12/23 05:13:13;;;;;;;17.77;16.77;;;16.10;51.90;;;;;;5032025;28;20539;-51
2021/12/23 05:15:41;;;;;;;17.27;16.13;;;16.10;52.10;;;;;;5032337;28;20472;-54
2021/12/23 05:18:08;;;;;;;16.67;15.77;;;16.30;52.10;;;;;;5032587;28;20456;-51
2021/12/23 05:20:35;;;;;;;19.43;18.23;;;16.20;51.90;;;;;;5032342;28;20456;-49
2021/12/23 05:23:02;;;;;;;17.60;16.60;;;16.10;51.90;;;;;;5031759;28;20460;-50
2021/12/23 05:25:29;;;;;;;19.73;18.57;;;16.10;52.20;;;;;;5032196;28;20449;-52
2021/12/23 05:27:58;;;;;;;18.77;17.67;;;16.10;52.10;;;;;;5032222;28;20977;-50
2021/12/23 05:30:27;;;;;;;17.97;16.87;;;16.20;52.10;;;;;;5032215;28;21042;-52
2021/12/23 05:32:54;;;;;;;18.23;17.23;;;16.20;52.10;;;;;;5031526;28;20469;-50
2021/12/23 05:35:22;;;;;;;18.00;16.87;;;16.20;52.00;;;;;;5032134;28;20498;-50
2021/12/23 05:37:49;;;;;;;18.70;17.73;;;16.10;52.50;;;;;;5031958;28;20953;-50
2021/12/23 05:40:19;;;;;;;18.33;17.33;;;16.20;52.00;;;;;;5032076;28;20454;-49
2021/12/23 05:42:47;;;;;;;18.23;17.07;;;16.10;52.00;;;;;;5031748;28;20446;-51
2021/12/23 05:45:15;;;;;;;18.07;17.23;;;16.00;52.20;;;;;;5031782;28;20437;-51
2021/12/23 05:47:44;;;;;;;17.67;16.77;;;16.00;52.20;;;;;;5031893;28;20938;-49
2021/12/23 05:50:13;;;;;;;17.40;16.40;;;16.10;52.80;;;;;;5031917;28;20456;-49
2021/12/23 05:52:41;;;;;;;17.93;17.00;;;17.40;53.80;;;;;;5031610;28;20445;-50
2021/12/23 05:55:10;;;;;;;19.07;18.03;;;18.30;51.60;;;;;;5031360;28;20485;-50
2021/12/23 05:57:38;;;;;;;17.70;16.70;;;18.70;49.90;;;;;;5031649;28;20536;-49
2021/12/23 06:00:09;;;;;;;18.17;17.27;;;18.90;48.80;;;;;;5031738;28;20445;-49
2021/12/23 06:02:36;;;;;;;18.53;17.63;;;19.10;48.10;;;;;;5031125;28;20451;-52
2021/12/23 06:05:05;;;;;;;19.07;18.17;;;19.20;47.60;;;;;;5030900;28;20448;-49
2021/12/23 06:07:32;;;;;;;18.80;17.80;;;19.30;47.30;;;;;;5031738;28;20452;-52
2021/12/23 06:09:58;;;;;;;19.20;18.20;;;19.30;47.10;;;;;;5031594;28;20441;-50
2021/12/23 06:12:26;;;;;;;18.70;17.60;;;19.30;46.70;;;;;;5031069;28;20546;-48
2021/12/23 06:14:53;;;;;;;18.53;17.63;;;19.30;46.50;;;;;;5031125;28;20480;-49
2021/12/23 06:17:20;;;;;;;18.03;17.13;;;19.40;46.50;;;;;;5031513;28;20444;-48
2021/12/23 06:19:46;;;;;;;17.30;16.60;;;19.40;46.20;;;;;;5031592;28;20445;-48
2021/12/23 06:22:14;;;;;;;19.10;18.10;;;19.30;46.10;;;;;;5031248;28;20957;-51
2021/12/23 06:24:43;;;;;;;18.90;17.90;;;19.40;46.20;;;;;;5031165;28;20460;-48
2021/12/23 06:27:10;;;;;;;17.77;16.80;;;19.30;46.00;;;;;;5031427;28;20792;-49
2021/12/23 06:29:37;;;;;;;18.50;17.60;;;19.30;46.00;;;;;;5031372;28;20440;-49
2021/12/23 06:32:04;;;;;;;18.37;17.40;;;19.30;45.90;;;;;;5031179;28;20930;-49
2021/12/23 06:34:31;;;;;;;18.03;17.23;;;19.30;45.90;;;;;;5031080;28;20492;-51
2021/12/23 06:36:58;;;;;;;18.40;17.40;;;19.40;45.80;;;;;;5031292;28;20445;-50
2021/12/23 06:39:26;;;;;;;17.47;16.67;;;19.30;45.70;;;;;;5031501;28;20452;-49
2021/12/23 06:41:53;;;;;;;18.23;17.33;;;19.40;45.60;;;;;;5031139;28;20445;-51
2021/12/23 06:44:20;;;;;;;19.53;18.63;;;19.30;45.50;;;;;;5030839;28;20461;-49
2021/12/23 06:46:47;;;;;;;18.17;17.20;;;19.40;45.60;;;;;;5031070;28;20449;-48
2021/12/23 06:49:14;;;;;;;18.90;17.97;;;19.20;45.50;;;;;;5031277;28;20449;-49
2021/12/23 06:51:41;;;;;;;18.07;17.07;;;19.20;45.50;;;;;;5031214;28;20471;-50
2021/12/23 06:54:09;;;;;;;19.00;18.00;;;19.30;45.40;;;;;;5030796;28;20485;-51
2021/12/23 06:56:37;;;;;;;17.43;16.63;;;19.20;45.30;;;;;;5030960;28;20449;-48
2021/12/23 06:59:04;;;;;;;17.97;17.13;;;19.20;45.40;;;;;;5031194;28;20445;-50
2021/12/23 07:01:31;;;;;;;17.40;16.60;;;19.20;45.30;;;;;;5030984;28;20621;-49
2021/12/23 07:04:06;;;;;;;17.43;16.67;;;19.20;45.20;;;;;;5028980;28;20473;-48
2021/12/23 07:06:37;;;;;;;18.13;17.23;;;19.10;45.20;;;;;;5019426;28;20456;-47
2021/12/23 07:09:06;;;;;;;17.13;16.30;;;18.90;45.90;;;;;;5019153;28;20906;-46
2021/12/23 07:11:33;;;;;;;17.43;16.63;;;18.80;46.20;;;;;;5019224;28;21036;-51
2021/12/23 07:14:01;;;;;;;17.80;16.80;;;18.90;46.50;;;;;;5018757;28;20488;-48
2021/12/23 07:16:28;;;;;;;18.67;17.67;;;18.90;46.50;;;;;;5022317;28;20457;-49
2021/12/23 07:18:55;;;;;;;14.73;14.03;;;18.80;46.70;;;;;;5022669;28;20448;-49
2021/12/23 07:21:22;;;;;;;14.87;14.17;;;18.60;46.80;;;;;;5022565;28;20962;-46
2021/12/23 07:23:49;;;;;;;15.00;14.30;;;18.50;47.20;;;;;;5022333;28;20473;-48
2021/12/23 07:26:15;;;;;;;15.87;15.07;;;18.40;47.40;;;;;;5022418;28;20452;-47
2021/12/23 07:28:42;;;;;;;15.00;14.30;;;18.40;47.60;;;;;;5022372;28;20444;-49
2021/12/23 07:31:10;;;;;;;13.50;12.77;;;18.40;47.70;;;;;;5022734;28;20970;-49
2021/12/23 07:33:37;;;;;;;13.80;13.17;;;18.30;47.80;;;;;;5022129;28;20496;-52
2021/12/23 07:36:05;;;;;;;14.20;13.50;;;18.30;47.90;;;;;;5022372;28;20472;-46
2021/12/23 07:38:32;;;;;;;14.40;13.70;;;18.20;48.00;;;;;;5022427;28;20449;-52
2021/12/23 07:40:59;;;;;;;13.90;13.20;;;18.20;48.00;;;;;;5022349;28;20483;-48
2021/12/23 07:43:56;;;;;;;13.20;12.50;;;18.20;48.20;;;;;;5021421;28;20457;-45
2021/12/23 07:46:25;;;;;;;14.40;13.70;;;18.20;48.30;;;;;;5022242;28;20320;-48
2021/12/23 07:48:52;;;;;;;15.43;14.63;;;18.20;48.30;;;;;;5022232;28;20932;-52
2021/12/23 07:51:18;;;;;;;14.07;13.47;;;18.20;48.30;;;;;;5022307;28;20655;-47
2021/12/23 07:53:45;;;;;;;13.93;13.33;;;18.30;48.50;;;;;;5021715;28;20482;-47
2021/12/23 07:56:12;;;;;;;15.27;14.47;;;19.40;48.70;;;;;;5022128;28;20456;-46
2021/12/23 07:58:39;;;;;;;14.70;14.00;;;20.00;47.30;;;;;;5022152;28;20449;-48
2021/12/23 08:01:06;;;;;;;14.43;13.83;;;20.30;46.20;;;;;;5021919;28;20456;-48
2021/12/23 08:03:34;;;;;;;13.67;13.07;;;20.60;45.80;;;;;;5044638;22;20497;-50
2021/12/23 08:06:00;;;;;;;14.50;13.90;;;20.90;45.30;;;;;;5012980;28;20472;-45
2021/12/23 08:08:27;;;;;;;14.47;13.77;;;21.40;44.90;;;;;;5002498;28;20881;-52
2021/12/23 08:10:54;;;;;;;13.68;13.07;;;22.10;44.30;;;;;;5001753;28;20519;-48
2021/12/23 08:13:21;;;;;;;14.53;13.93;;;22.60;43.60;;;;;;5001542;28;20321;-49
2021/12/23 08:15:47;;;;;;;13.80;13.10;;;22.90;42.80;;;;;;5001281;28;20462;-45
2021/12/23 08:18:15;;;;;;;14.90;14.20;;;23.30;42.30;;;;;;5001770;28;20203;-50
2021/12/23 08:20:43;;;;;;;14.60;14.10;;;23.30;41.70;;;;;;5002045;28;20493;-49
2021/12/23 08:23:10;;;;;;;15.90;15.20;;;23.30;41.70;;;;;;5001678;28;20450;-49
2021/12/23 08:25:36;;;;;;;15.03;14.33;;;23.40;41.70;;;;;;5001846;28;20457;-53
2021/12/23 08:28:03;;;;;;;14.63;13.97;;;23.30;41.50;;;;;;5001171;28;20453;-47
2021/12/23 08:30:32;;;;;;;14.77;13.97;;;23.40;41.50;;;;;;5001744;28;20811;-45
2021/12/23 08:32:58;;;;;;;15.30;14.57;;;23.80;41.40;;;;;;5001232;28;20450;-49
2021/12/23 08:35:25;;;;;;;15.27;14.60;;;24.20;40.90;;;;;;5001494;28;20485;-47
2021/12/23 08:37:53;;;;;;;14.80;14.10;;;24.40;40.40;;;;;;5001431;28;20446;-45
2021/12/23 08:40:22;;;;;;;13.53;13.03;;;24.40;40.40;;;;;;5001669;28;20211;-49
2021/12/23 08:42:50;;;;;;;16.13;15.43;;;24.40;40.20;;;;;;5001441;28;20457;-44
2021/12/23 08:45:17;;;;;;;14.80;14.10;;;24.50;40.00;;;;;;5001251;28;20454;-48
2021/12/23 08:47:45;;;;;;;16.00;15.30;;;24.70;39.90;;;;;;5001129;28;20853;-50
2021/12/23 08:50:15;;;;;;;15.10;14.50;;;24.90;39.70;;;;;;5001217;28;20525;-47
2021/12/23 08:52:42;;;;;;;14.63;14.02;;;25.30;39.40;;;;;;5000891;28;20443;-46
2021/12/23 08:55:12;;;;;;;15.85;15.20;;;25.40;39.00;;;;;;5000812;28;20477;-47
2021/12/23 08:57:39;;;;;;;13.70;13.10;;;25.40;38.80;;;;;;5000087;28;20461;-47
2021/12/23 09:00:09;;;;;;;12.85;12.32;;;25.40;38.80;;;;;;5000007;28;20448;-44
2021/12/23 09:02:36;;;;;;;15.07;14.48;;;25.40;38.70;;;;;;5000706;28;20451;-47
2021/12/23 09:05:03;;;;;;;15.80;15.10;;;25.40;38.50;;;;;;5000656;28;20231;-47
2021/12/23 09:07:29;;;;;;;14.30;13.70;;;25.40;38.50;;;;;;5000764;28;20446;-47
2021/12/23 09:09:56;;;;;;;15.30;14.60;;;25.40;38.50;;;;;;5000909;28;20810;-46
2021/12/23 09:12:25;;;;;;;16.90;16.10;;;25.40;38.50;;;;;;5000941;28;20468;-46
2021/12/23 09:14:52;;;;;;;14.00;13.40;;;25.90;38.50;;;;;;4999699;28;20465;-47
2021/12/23 09:17:19;;;;;;;13.80;13.20;;;26.10;37.90;;;;;;4999832;28;20943;-46
2021/12/23 09:19:46;;;;;;;16.00;15.40;;;26.20;37.70;;;;;;5000987;28;20902;-48
2021/12/23 09:22:13;;;;;;;16.57;15.87;;;26.20;37.50;;;;;;5000596;28;20457;-46
2021/12/23 09:24:45;;;;;;;16.27;15.57;;;26.10;37.40;;;;;;5000610;28;20470;-44
2021/12/23 09:27:22;;;;;;;16.70;16.00;;;26.10;37.40;;;;;;5000725;28;20457;-43
2021/12/23 09:32:52;;;;;;;15.60;14.90;;;26.10;37.60;;;;;;4999859;28;20509;-53
2021/12/23 09:35:20;;;;;;;16.43;15.80;;;26.60;37.30;;;;;;5000361;28;20229;-47
2021/12/23 09:37:47;;;;;;;16.23;15.53;;;26.90;36.70;;;;;;5000418;28;20456;-48
2021/12/23 09:40:14;;;;;;;15.07;14.50;;;26.80;36.40;;;;;;5000070;28;20537;-46
2021/12/23 09:42:43;;;;;;;15.73;15.03;;;26.80;36.40;;;;;;5000318;28;20912;-47
2021/12/23 09:45:14;;;;;;;15.50;14.80;;;26.80;36.40;;;;;;5000114;28;20469;-46
2021/12/23 09:47:42;;;;;;;14.20;13.60;;;26.70;36.40;;;;;;4999700;28;20443;-49
2021/12/23 09:50:11;;;;;;;15.83;15.20;;;26.50;36.40;;;;;;5000139;28;20955;-48
2021/12/23 09:52:44;;;;;;;14.93;14.32;;;26.50;36.60;;;;;;4999321;28;20449;-49
2021/12/23 09:55:14;;;;;;;15.90;15.20;;;26.90;36.70;;;;;;4999822;28;20280;-44
2021/12/23 09:57:41;;;;;;;15.20;14.50;;;27.40;36.60;;;;;;4999966;28;20497;-47
2021/12/23 10:00:11;;;;;;;14.30;13.60;;;27.40;35.70;;;;;;4999334;28;20451;-44
2021/12/23 10:02:41;;;;;;;14.70;14.10;;;27.40;35.60;;;;;;4999399;28;20928;-46
2021/12/23 10:05:11;;;;;;;15.40;14.80;;;27.10;35.50;;;;;;5000016;28;20231;-46
2021/12/23 10:07:39;;;;;;;14.30;13.70;;;27.10;35.70;;;;;;4999788;28;20848;-45
2021/12/23 10:10:12;;;;;;;14.60;14.10;;;27.10;35.70;;;;;;4999627;28;20540;-46
2021/12/23 10:32:12;;;;;;;15.07;14.47;;;27.40;34.80;;;;;;4999433;28;20433;-45
2021/12/23 10:37:25;;;;;;;15.50;14.80;;;27.20;35.10;;;;;;4999871;28;20465;-53
2021/12/23 10:39:55;;;;;;;13.82;13.23;;;27.00;35.30;;;;;;4998572;28;20443;-47
2021/12/23 10:42:24;;;;;;;15.57;14.97;;;26.90;35.50;;;;;;4999390;28;20207;-47
2021/12/23 10:44:54;;;;;;;15.02;14.52;;;26.80;35.50;;;;;;4999220;28;20441;-43
2021/12/23 10:47:39;;;;;;;14.33;13.80;;;26.60;35.60;;;;;;4999399;28;20210;-43
2021/12/23 10:50:22;;;;;;;15.40;14.60;;;26.40;35.30;;;;;;5000827;28;21300;-45
2021/12/23 10:52:51;;;;;;;17.10;16.30;;;26.20;35.30;;;;;;5003475;28;20453;-44
2021/12/23 10:58:15;;;;;;;16.77;15.87;;;25.90;35.70;;;;;;5003038;28;20529;-47
2021/12/23 11:00:45;;;;;;;17.47;16.27;;;25.80;36.90;;;;;;5003200;28;20519;-46
2021/12/23 11:03:18;;;;;;;18.80;17.70;;;25.70;37.20;;;;;;5002695;28;20474;-45
2021/12/23 11:05:57;;;;;;;18.57;17.07;;;25.60;37.30;;;;;;5003082;28;20819;-46
2021/12/23 11:08:32;;;;;;;21.10;19.50;;;25.40;37.50;;;;;;5003254;28;20464;-48
2021/12/23 11:11:25;;;;;;;34.10;31.07;;;25.30;37.60;;;;;;5002760;28;20456;-44
2021/12/23 11:28:28;;;;;;;32.43;29.93;;;24.60;38.30;;;;;;4983490;28;20473;-51
2021/12/23 11:39:30;;;;;;;30.60;28.00;;;24.20;38.60;;;;;;4997133;28;20496;-48
2021/12/23 11:42:06;;;;;;;29.50;27.40;;;24.00;38.80;;;;;;5002116;28;20477;-50
2021/12/23 11:44:33;;;;;;;27.97;25.80;;;23.90;38.80;;;;;;5002291;28;20579;-49
2021/12/23 11:47:10;;;;;;;27.53;25.63;;;23.80;38.90;;;;;;5002335;28;20473;-46
2021/12/23 11:49:40;;;;;;;27.30;25.47;;;23.70;38.90;;;;;;5002481;28;20450;-49
2021/12/23 11:52:08;;;;;;;28.07;25.97;;;23.60;39.00;;;;;;5002296;28;20539;-52
2021/12/23 11:54:39;;;;;;;28.87;26.87;;;23.50;39.10;;;;;;5002094;28;20472;-48
2021/12/23 11:57:09;;;;;;;24.92;22.92;;;23.40;39.30;;;;;;5001002;28;20524;-49
2021/12/23 11:59:39;;;;;;;27.67;25.47;;;23.40;39.60;;;;;;5002396;28;20207;-48
2021/12/23 12:02:16;;;;;;;26.93;24.60;;;23.30;39.70;;;;;;5000938;28;20501;-46
2021/12/23 12:04:44;;;;;;;23.90;21.77;;;23.10;39.80;;;;;;5001011;28;20814;-44
2021/12/23 12:07:16;;;;;;;22.70;20.90;;;23.00;39.80;;;;;;5001094;28;20565;-45
2021/12/23 12:09:59;;;;;;;22.08;20.55;;;22.90;40.10;;;;;;5001090;28;20903;-47
2021/12/23 12:12:28;;;;;;;25.40;23.40;;;22.80;40.00;;;;;;4982335;28;20239;-47
2021/12/23 12:14:55;;;;;;;24.88;22.98;;;22.70;40.20;;;;;;4982496;28;20449;-49
2021/12/23 12:17:40;;;;;;;22.37;20.97;;;22.60;40.40;;;;;;4982406;28;20215;-48
2021/12/23 12:20:21;;;;;;;22.83;21.13;;;22.40;40.60;;;;;;4983624;28;20858;-48
2021/12/23 12:22:55;;;;;;;22.03;20.53;;;22.30;40.80;;;;;;5001652;28;20473;-49
2021/12/23 12:25:59;;;;;;;22.20;20.57;;;22.20;41.00;;;;;;5001693;28;20446;-47
2021/12/23 12:28:32;;;;;;;20.60;19.10;;;22.10;41.20;;;;;;5000429;28;20466;-48
2021/12/23 12:31:01;;;;;;;20.00;18.50;;;22.10;41.30;;;;;;5000926;28;20493;-46
2021/12/23 12:33:54;;;;;;;21.03;19.43;;;22.10;41.20;;;;;;5001117;28;20439;-45
2021/12/23 12:36:22;;;;;;;23.77;22.37;;;22.10;41.20;;;;;;5001644;28;21025;-44
2021/12/23 12:38:52;;;;;;;21.43;20.13;;;21.90;41.30;;;;;;5000911;28;20450;-44
2021/12/23 12:41:29;;;;;;;21.40;20.00;;;21.80;41.40;;;;;;5001313;28;21043;-48
2021/12/23 12:44:03;;;;;;;20.80;19.20;;;21.70;41.70;;;;;;4981807;28;20231;-46
2021/12/23 12:47:06;;;;;;;20.30;18.80;;;21.60;42.30;;;;;;4981854;28;20485;-48
2021/12/23 12:49:38;;;;;;;22.13;20.60;;;21.50;42.30;;;;;;4991669;28;20819;-50
2021/12/23 12:52:31;;;;;;;19.73;18.50;;;21.70;45.00;;;;;;5000973;28;20549;-48
2021/12/23 12:55:00;;;;;;;19.63;18.50;;;21.50;44.10;;;;;;4996279;28;20481;-50
2021/12/23 12:57:34;;;;;;;20.63;19.53;;;21.40;43.60;;;;;;5001181;28;20903;-49
2021/12/23 13:00:20;;;;;;;20.10;18.80;;;21.30;43.80;;;;;;5000800;28;20453;-46
2021/12/23 13:02:53;;;;;;;20.13;18.73;;;21.30;44.00;;;;;;5000967;28;20798;-47
2021/12/23 13:05:28;;;;;;;19.77;18.47;;;21.20;44.10;;;;;;5001010;28;20454;-48
2021/12/23 13:07:55;;;;;;;17.73;16.52;;;21.10;44.30;;;;;;4999959;28;20447;-49
2021/12/23 13:10:31;;;;;;;20.37;19.17;;;21.10;44.50;;;;;;5000886;28;20580;-49
2021/12/23 13:13:04;;;;;;;18.53;17.33;;;21.10;44.60;;;;;;5000269;28;20472;-51
2021/12/23 13:15:33;;;;;;;17.33;16.02;;;21.10;44.70;;;;;;5000047;28;20503;-46
2021/12/23 13:18:03;;;;;;;19.00;18.00;;;21.00;44.70;;;;;;5000800;28;20582;-50
2021/12/23 13:20:40;;;;;;;17.63;16.80;;;21.00;44.80;;;;;;5000815;28;20465;-51
2021/12/23 13:23:12;;;;;;;17.02;15.73;;;21.00;44.80;;;;;;4999351;28;20454;-44
2021/12/23 13:25:50;;;;;;;17.63;16.52;;;20.90;44.90;;;;;;5000351;28;20836;-48
2021/12/23 13:28:28;;;;;;;16.90;15.80;;;20.80;45.10;;;;;;5000299;28;20449;-47
2021/12/23 13:30:56;;;;;;;19.60;17.80;;;20.70;45.30;;;;;;4999498;28;20295;-50
2021/12/23 13:33:24;;;;;;;17.93;16.73;;;20.60;45.40;;;;;;4987203;28;20470;-48
2021/12/23 13:35:54;;;;;;;19.23;17.60;;;20.50;45.80;;;;;;4996683;28;20509;-46